createdAt,value
2023-12-31T00:01:17.689Z,74.73
2023-12-31T00:11:20.743Z,73.96
2023-12-31T00:21:25.899Z,74.24
2023-12-31T00:31:28.647Z,73.98
2023-12-31T00:41:35.317Z,74.43
2023-12-31T00:51:38.771Z,74.54
2023-12-31T01:01:42.942Z,74.63
2023-12-31T01:11:45.706Z,74.92
2023-12-31T01:21:50.540Z,75.11
2023-12-31T01:31:54.157Z,75.38
2023-12-31T01:41:58.250Z,75.34
2023-12-31T01:52:01.827Z,75.09
2023-12-31T02:02:06.052Z,75.00
2023-12-31T02:12:09.605Z,75.00
2023-12-31T02:22:13.905Z,74.66
2023-12-31T02:32:18.014Z,74.59
2023-12-31T02:42:21.589Z,74.62
2023-12-31T02:52:26.088Z,74.54
2023-12-31T03:02:28.851Z,74.28
2023-12-31T03:12:33.287Z,73.97
2023-12-31T03:22:42.051Z,74.23
2023-12-31T03:32:47.396Z,73.84
2023-12-31T03:42:50.181Z,73.28
2023-12-31T03:52:54.326Z,73.31
2023-12-31T04:02:57.084Z,73.25
2023-12-31T04:13:01.391Z,72.82
2023-12-31T04:23:04.810Z,72.92
2023-12-31T04:33:09.428Z,72.53
2023-12-31T04:43:12.340Z,72.53
2023-12-31T04:53:21.840Z,72.09
2023-12-31T05:03:24.608Z,72.16
2023-12-31T05:13:28.712Z,72.02
2023-12-31T05:23:32.827Z,71.50
2023-12-31T05:33:38.015Z,71.38
2023-12-31T05:43:40.832Z,71.31
2023-12-31T05:53:44.931Z,71.50
2023-12-31T06:03:48.031Z,70.92
2023-12-31T06:13:52.204Z,70.13
2023-12-31T06:23:54.972Z,69.60
2023-12-31T06:33:59.229Z,68.59
2023-12-31T06:44:01.972Z,68.67
2023-12-31T06:54:06.480Z,68.55
2023-12-31T07:04:09.229Z,68.64
2023-12-31T07:14:13.329Z,68.16
2023-12-31T07:24:16.772Z,68.07
2023-12-31T07:34:21.078Z,68.32
2023-12-31T07:44:23.840Z,68.30
2023-12-31T07:54:27.899Z,68.27
2023-12-31T08:04:30.861Z,67.61
2023-12-31T08:14:34.982Z,67.37
2023-12-31T08:24:37.771Z,66.80
2023-12-31T08:34:41.952Z,66.34
2023-12-31T08:44:56.875Z,65.62
2023-12-31T08:55:08.060Z,65.71
2023-12-31T09:05:11.845Z,65.26
2023-12-31T09:15:18.880Z,63.43
2023-12-31T09:25:21.798Z,63.50
2023-12-31T09:35:26.005Z,63.62
2023-12-31T09:45:29.758Z,62.98
2023-12-31T09:55:35.497Z,62.81
2023-12-31T10:05:40.927Z,62.99
2023-12-31T10:15:46.369Z,61.19
2023-12-31T10:25:49.424Z,54.86
2023-12-31T10:36:54.622Z,58.28
2023-12-31T10:47:08.272Z,58.70
2023-12-31T10:57:18.069Z,58.52
2023-12-31T11:07:31.761Z,58.75
2023-12-31T11:18:11.351Z,58.68
2023-12-31T11:28:19.101Z,57.86
2023-12-31T11:38:22.389Z,58.04
2023-12-31T11:48:29.816Z,58.12
2023-12-31T11:58:35.294Z,57.80
2023-12-31T12:08:41.324Z,58.20
2023-12-31T12:18:44.305Z,58.19
2023-12-31T12:28:54.426Z,57.58
2023-12-31T12:39:04.482Z,57.14
2023-12-31T12:49:15.088Z,57.15
2023-12-31T12:59:17.908Z,57.77
2023-12-31T13:09:22.489Z,57.50
2023-12-31T13:19:25.361Z,56.15
2023-12-31T13:29:29.618Z,55.28
2023-12-31T13:39:32.905Z,55.76
2023-12-31T13:49:39.282Z,54.81
2023-12-31T13:59:42.344Z,55.09
2023-12-31T14:09:46.521Z,55.51
2023-12-31T14:19:49.633Z,55.55
2023-12-31T14:29:53.856Z,55.43
2023-12-31T14:39:56.687Z,55.06
2023-12-31T14:50:01.069Z,54.11
2023-12-31T15:00:05.889Z,54.60
2023-12-31T15:10:10.664Z,55.83
2023-12-31T15:20:17.263Z,55.58
2023-12-31T15:30:22.022Z,57.10
2023-12-31T15:40:25.194Z,56.99
2023-12-31T15:50:29.835Z,56.55
2023-12-31T16:00:32.620Z,56.93
2023-12-31T16:10:36.787Z,57.86
2023-12-31T16:20:39.569Z,57.52
2023-12-31T16:30:45.637Z,57.87
2023-12-31T16:40:48.584Z,58.20
2023-12-31T16:50:53.277Z,58.74
2023-12-31T17:00:56.255Z,58.87
2023-12-31T17:11:00.501Z,58.45
2023-12-31T17:21:03.768Z,59.05
2023-12-31T17:31:07.955Z,59.83
2023-12-31T17:41:11.150Z,59.98
2023-12-31T17:51:19.731Z,60.67
2023-12-31T18:01:25.193Z,59.74
2023-12-31T18:11:29.594Z,60.08
2023-12-31T18:21:32.370Z,60.84
2023-12-31T18:31:37.342Z,62.08
2023-12-31T18:41:40.172Z,63.45
2023-12-31T18:51:44.312Z,63.72
2023-12-31T19:01:47.250Z,64.18
2023-12-31T19:11:51.425Z,64.44
2023-12-31T19:21:54.272Z,64.26
2023-12-31T19:31:58.448Z,64.30
2023-12-31T19:42:01.267Z,64.99
2023-12-31T19:52:05.893Z,65.07
2023-12-31T20:02:08.694Z,64.85
2023-12-31T20:12:13.114Z,64.88
2023-12-31T20:22:16.268Z,64.22
2023-12-31T20:32:20.718Z,63.87
2023-12-31T20:42:25.570Z,64.19
2023-12-31T20:52:31.367Z,63.87
2023-12-31T21:02:34.926Z,64.14
2023-12-31T21:12:39.130Z,63.93
2023-12-31T21:22:42.033Z,64.00
2023-12-31T21:32:46.221Z,64.26
2023-12-31T21:42:49.023Z,64.31
2023-12-31T21:52:53.353Z,64.45
2023-12-31T22:02:56.992Z,64.72
2023-12-31T22:13:01.248Z,64.79
2023-12-31T22:23:05.926Z,64.70
2023-12-31T22:33:10.952Z,65.00
2023-12-31T22:43:13.893Z,64.16
2023-12-31T22:53:26.859Z,64.64
2023-12-31T23:03:33.748Z,65.13
2023-12-31T23:13:40.461Z,65.58
2023-12-31T23:23:44.806Z,65.65
2023-12-31T23:33:49.005Z,65.43
2023-12-31T23:43:59.825Z,65.77
2023-12-31T23:54:10.443Z,65.27
